createdAt,value
2022-12-18T00:01:37.853Z,62.33
2022-12-18T00:04:14.522Z,62.42
2022-12-18T00:06:41.964Z,62.14
2022-12-18T00:09:10.765Z,61.22
2022-12-18T00:11:38.177Z,60.39
2022-12-18T00:14:06.098Z,59.89
2022-12-18T00:16:36.406Z,59.98
2022-12-18T00:19:05.700Z,60.21
2022-12-18T00:21:34.964Z,60.34
2022-12-18T00:24:02.688Z,61.08
2022-12-18T00:26:35.128Z,60.87
2022-12-18T00:29:14.901Z,59.43
2022-12-18T00:31:45.017Z,59.54
2022-12-18T00:34:14.671Z,60.04
2022-12-18T00:36:43.152Z,59.66
2022-12-18T00:39:13.340Z,60.26
2022-12-18T00:42:00.024Z,58.96
2022-12-18T00:44:27.624Z,58.43
2022-12-18T00:46:55.146Z,58.53
2022-12-18T00:49:22.640Z,59.10
2022-12-18T00:51:51.537Z,58.69
2022-12-18T00:54:19.486Z,60.39
2022-12-18T00:56:50.276Z,58.80
2022-12-18T00:59:23.859Z,59.65
2022-12-18T01:01:52.005Z,59.23
2022-12-18T01:04:21.441Z,57.84
2022-12-18T01:06:49.848Z,58.14
2022-12-18T01:09:17.336Z,58.63
2022-12-18T01:11:44.849Z,58.16
2022-12-18T01:14:12.614Z,58.08
2022-12-18T01:16:40.433Z,59.12
2022-12-18T01:19:08.118Z,58.40
2022-12-18T01:21:35.892Z,58.31
2022-12-18T01:24:11.476Z,57.74
2022-12-18T01:26:39.104Z,58.44
2022-12-18T01:29:06.574Z,58.53
2022-12-18T01:31:39.161Z,58.92
2022-12-18T01:34:07.448Z,58.37
2022-12-18T01:36:39.998Z,57.72
2022-12-18T01:39:17.315Z,57.79
2022-12-18T01:42:04.825Z,57.96
2022-12-18T01:44:59.474Z,57.63
2022-12-18T01:47:48.274Z,57.88
2022-12-18T01:50:47.352Z,59.28
2022-12-18T01:53:23.549Z,58.01
2022-12-18T01:55:56.858Z,57.63
2022-12-18T01:58:43.698Z,57.56
2022-12-18T02:01:11.692Z,58.11
2022-12-18T02:03:43.773Z,58.08
2022-12-18T02:06:28.640Z,57.98
2022-12-18T02:09:11.983Z,59.05
2022-12-18T02:12:18.754Z,57.58
2022-12-18T02:15:04.424Z,59.12
2022-12-18T02:17:51.542Z,61.29
2022-12-18T02:20:53.216Z,60.60
2022-12-18T02:23:52.617Z,60.51
2022-12-18T02:26:33.189Z,59.96
2022-12-18T02:29:09.827Z,59.56
2022-12-18T02:31:49.156Z,58.04
2022-12-18T02:34:20.020Z,59.17
2022-12-18T02:36:50.467Z,59.14
2022-12-18T02:39:22.125Z,58.70
2022-12-18T02:42:00.818Z,60.11
2022-12-18T02:44:28.440Z,61.92
2022-12-18T02:46:56.333Z,60.56
2022-12-18T02:50:00.043Z,61.32
2022-12-18T02:52:55.541Z,60.90
2022-12-18T02:56:07.050Z,60.54
2022-12-18T02:59:13.793Z,59.94
2022-12-18T03:02:53.832Z,59.69
2022-12-18T03:05:34.492Z,59.68
2022-12-18T03:08:21.501Z,59.51
2022-12-18T03:11:04.528Z,59.71
2022-12-18T03:13:57.201Z,59.40
2022-12-18T03:16:32.340Z,58.99
2022-12-18T03:19:12.362Z,59.81
2022-12-18T03:21:53.072Z,59.48
2022-12-18T03:24:23.300Z,60.11
2022-12-18T03:26:59.818Z,59.77
2022-12-18T03:29:44.970Z,58.89
2022-12-18T03:32:32.371Z,59.54
2022-12-18T03:35:06.852Z,59.31
2022-12-18T03:37:37.963Z,60.49
2022-12-18T03:40:07.652Z,60.56
2022-12-18T03:42:54.590Z,59.58
2022-12-18T03:45:37.156Z,59.24
2022-12-18T03:48:55.692Z,59.03
2022-12-18T03:52:18.255Z,58.90
2022-12-18T03:54:48.091Z,58.57
2022-12-18T03:57:30.251Z,58.42
2022-12-18T04:00:15.566Z,58.35
2022-12-18T04:02:58.135Z,58.52
2022-12-18T04:05:36.425Z,59.77
2022-12-18T04:08:05.682Z,59.48
2022-12-18T04:10:37.751Z,59.13
2022-12-18T04:13:05.345Z,58.88
2022-12-18T04:15:38.039Z,59.58
2022-12-18T04:18:09.631Z,59.42
2022-12-18T04:20:41.083Z,58.71
2022-12-18T04:23:11.507Z,58.51
2022-12-18T04:25:39.818Z,59.20
2022-12-18T04:28:17.559Z,59.42
2022-12-18T04:30:45.227Z,58.99
2022-12-18T04:33:18.483Z,59.74
2022-12-18T04:35:46.905Z,59.43
2022-12-18T04:38:15.155Z,59.13
2022-12-18T04:40:43.049Z,58.50
2022-12-18T04:43:18.604Z,58.51
2022-12-18T04:45:45.943Z,57.65
2022-12-18T04:48:13.548Z,57.83
2022-12-18T04:50:41.054Z,58.23
2022-12-18T04:53:08.773Z,59.05
2022-12-18T04:55:40.155Z,58.12
2022-12-18T04:58:07.625Z,57.40
2022-12-18T05:00:35.122Z,57.84
2022-12-18T05:03:03.922Z,58.01
2022-12-18T05:05:31.782Z,58.58
2022-12-18T05:07:59.174Z,58.92
2022-12-18T05:10:26.672Z,58.80
2022-12-18T05:13:01.039Z,59.22
2022-12-18T05:15:34.123Z,59.12
2022-12-18T05:18:03.786Z,58.24
2022-12-18T05:20:31.931Z,57.89
2022-12-18T05:22:59.346Z,58.43
2022-12-18T05:25:27.086Z,58.21
2022-12-18T05:27:55.285Z,57.47
2022-12-18T05:30:23.544Z,57.61
2022-12-18T05:32:51.081Z,58.28
2022-12-18T05:35:18.548Z,58.63
2022-12-18T05:37:47.461Z,58.52
2022-12-18T05:40:15.091Z,58.14
2022-12-18T05:42:42.483Z,58.32
2022-12-18T05:45:10.475Z,58.57
2022-12-18T05:47:38.189Z,58.18
2022-12-18T05:50:07.966Z,58.56
2022-12-18T05:52:35.492Z,57.98
2022-12-18T05:55:03.109Z,57.77
2022-12-18T05:57:30.982Z,57.68
2022-12-18T05:59:58.892Z,58.18
2022-12-18T06:02:26.813Z,57.47
2022-12-18T06:04:54.429Z,57.38
2022-12-18T06:07:21.914Z,58.11
2022-12-18T06:09:51.678Z,57.34
2022-12-18T06:12:19.033Z,57.34
2022-12-18T06:14:46.650Z,57.24
2022-12-18T06:17:13.945Z,56.98
2022-12-18T06:19:41.308Z,57.84
2022-12-18T06:22:08.721Z,58.22
2022-12-18T06:24:36.065Z,58.78
2022-12-18T06:27:03.410Z,58.02
2022-12-18T06:29:30.844Z,57.63
2022-12-18T06:31:58.552Z,57.60
2022-12-18T06:34:25.979Z,57.18
2022-12-18T06:36:53.378Z,57.89
2022-12-18T06:39:21.105Z,59.00
2022-12-18T06:41:48.743Z,59.07
2022-12-18T06:44:16.276Z,59.28
2022-12-18T06:46:43.655Z,57.19
2022-12-18T06:49:11.207Z,56.98
2022-12-18T06:51:39.027Z,56.90
2022-12-18T06:54:06.665Z,57.23
2022-12-18T06:56:35.415Z,57.41
2022-12-18T06:59:02.988Z,58.41
2022-12-18T07:01:30.757Z,58.84
2022-12-18T07:04:07.125Z,59.39
2022-12-18T07:06:37.752Z,58.99
2022-12-18T07:09:05.265Z,59.15
2022-12-18T07:11:34.957Z,58.32
2022-12-18T07:14:02.618Z,59.18
2022-12-18T07:16:30.200Z,58.87
2022-12-18T07:18:58.045Z,59.18
2022-12-18T07:21:26.542Z,58.14
2022-12-18T07:23:54.332Z,56.54
2022-12-18T07:26:23.119Z,57.53
2022-12-18T07:28:51.826Z,57.57
2022-12-18T07:31:22.869Z,56.58
2022-12-18T07:33:54.275Z,55.77
2022-12-18T07:36:21.787Z,55.66
2022-12-18T07:38:52.607Z,56.36
2022-12-18T07:41:20.290Z,55.72
2022-12-18T07:43:48.190Z,56.44
2022-12-18T07:46:17.312Z,56.20
2022-12-18T07:48:49.516Z,55.76
2022-12-18T07:51:18.885Z,55.33
2022-12-18T07:53:49.449Z,54.91
2022-12-18T07:56:30.537Z,54.95
2022-12-18T07:59:00.218Z,56.17
2022-12-18T08:01:28.532Z,56.38
2022-12-18T08:03:57.259Z,56.01
2022-12-18T08:06:28.023Z,56.04
2022-12-18T08:08:57.571Z,56.11
2022-12-18T08:11:28.815Z,55.86
2022-12-18T08:13:57.302Z,56.79
2022-12-18T08:16:28.069Z,57.28
2022-12-18T08:18:55.982Z,55.64
2022-12-18T08:21:31.596Z,55.64
2022-12-18T08:24:02.376Z,54.87
2022-12-18T08:26:32.326Z,55.14
2022-12-18T08:29:01.954Z,54.82
2022-12-18T08:31:31.547Z,55.09
2022-12-18T08:34:24.943Z,55.81
2022-12-18T08:36:52.376Z,54.36
2022-12-18T08:39:19.968Z,53.60
2022-12-18T08:42:10.214Z,54.49
2022-12-18T08:44:41.216Z,54.76
2022-12-18T08:47:09.292Z,53.25
2022-12-18T08:49:37.568Z,54.23
2022-12-18T08:52:05.367Z,53.32
2022-12-18T08:54:32.878Z,53.69
2022-12-18T08:57:03.199Z,53.60
2022-12-18T08:59:31.174Z,52.52
2022-12-18T09:01:58.700Z,52.62
2022-12-18T09:04:26.290Z,52.92
2022-12-18T09:06:57.086Z,53.22
2022-12-18T09:09:24.431Z,53.40
2022-12-18T09:11:52.044Z,53.62
2022-12-18T09:14:19.953Z,53.20
2022-12-18T09:16:51.170Z,54.05
2022-12-18T09:19:18.852Z,53.16
2022-12-18T09:21:48.455Z,51.51
2022-12-18T09:24:17.819Z,50.71
2022-12-18T09:26:58.034Z,50.94
2022-12-18T09:29:38.734Z,49.56
2022-12-18T09:32:22.519Z,43.35
2022-12-18T09:34:50.332Z,39.98
2022-12-18T09:37:17.977Z,37.22
2022-12-18T09:39:45.638Z,33.67
2022-12-18T09:42:23.572Z,29.62
2022-12-18T09:44:55.233Z,31.73
2022-12-18T09:47:41.887Z,30.82
2022-12-18T09:50:41.894Z,28.92
2022-12-18T09:53:23.984Z,28.45
2022-12-18T09:55:55.538Z,28.63
2022-12-18T09:58:45.467Z,25.70
2022-12-18T10:01:23.865Z,27.22
2022-12-18T10:03:54.611Z,25.81
2022-12-18T10:06:33.196Z,27.28
2022-12-18T10:09:35.897Z,25.38
2022-12-18T10:12:32.174Z,24.78
2022-12-18T10:15:16.911Z,24.53
2022-12-18T10:18:24.184Z,24.82
2022-12-18T10:21:05.468Z,25.52
2022-12-18T10:24:18.922Z,23.98
2022-12-18T10:26:48.849Z,23.55
2022-12-18T10:29:18.303Z,22.96
2022-12-18T10:31:46.038Z,22.84
2022-12-18T10:34:14.409Z,24.11
2022-12-18T10:36:43.746Z,25.12
2022-12-18T10:39:27.190Z,26.25
2022-12-18T10:42:18.373Z,27.65
2022-12-18T10:44:46.560Z,26.42
2022-12-18T10:47:20.525Z,25.63
2022-12-18T10:49:54.322Z,25.70
2022-12-18T10:52:29.613Z,25.81
2022-12-18T10:55:05.641Z,27.53
2022-12-18T10:57:42.733Z,27.60
2022-12-18T11:00:37.463Z,29.46
2022-12-18T11:03:37.040Z,28.73
2022-12-18T11:06:26.078Z,27.75
2022-12-18T11:09:14.460Z,27.63
2022-12-18T11:12:00.271Z,28.13
2022-12-18T11:14:49.889Z,28.77
2022-12-18T11:17:36.678Z,28.55
2022-12-18T11:20:29.209Z,27.82
2022-12-18T11:23:14.212Z,28.30
2022-12-18T11:25:54.927Z,26.35
2022-12-18T11:28:45.852Z,26.91
2022-12-18T11:31:26.778Z,29.06
2022-12-18T11:36:55.937Z,26.84
2022-12-18T11:39:46.263Z,29.94
2022-12-18T11:42:50.145Z,28.98
2022-12-18T11:45:32.701Z,28.38
2022-12-18T11:48:50.048Z,28.98
2022-12-18T11:51:37.143Z,29.11
2022-12-18T11:54:16.948Z,27.51
2022-12-18T11:57:46.531Z,27.83
2022-12-18T12:00:20.321Z,28.77
2022-12-18T12:03:29.171Z,29.27
2022-12-18T12:06:15.819Z,28.60
2022-12-18T12:09:03.851Z,28.91
2022-12-18T12:13:05.521Z,28.82
2022-12-18T12:16:33.547Z,28.49
2022-12-18T12:19:19.595Z,31.12
2022-12-18T12:22:07.745Z,31.46
2022-12-18T12:24:53.305Z,32.80
2022-12-18T12:27:56.619Z,33.94
2022-12-18T12:30:54.504Z,34.44
2022-12-18T12:33:36.769Z,33.77
2022-12-18T12:36:36.454Z,33.61
2022-12-18T12:39:18.943Z,34.29
2022-12-18T12:42:06.664Z,34.56
2022-12-18T12:44:56.180Z,34.22
2022-12-18T12:47:39.947Z,35.15
2022-12-18T12:50:19.973Z,34.45
2022-12-18T12:52:58.367Z,34.99
2022-12-18T12:55:54.431Z,35.30
2022-12-18T12:58:49.176Z,35.51
2022-12-18T13:01:49.576Z,36.45
2022-12-18T13:04:53.747Z,35.97
2022-12-18T13:08:04.644Z,36.65
2022-12-18T13:10:43.363Z,37.29
2022-12-18T13:13:23.219Z,37.99
2022-12-18T13:16:08.227Z,38.60
2022-12-18T13:18:37.115Z,38.19
2022-12-18T13:21:22.456Z,37.91
2022-12-18T13:23:50.369Z,38.59
2022-12-18T13:26:18.059Z,39.19
2022-12-18T13:28:47.445Z,39.93
2022-12-18T13:31:43.384Z,40.34
2022-12-18T13:34:28.097Z,40.54
2022-12-18T13:37:32.289Z,40.32
2022-12-18T13:39:59.889Z,41.12
2022-12-18T13:43:00.350Z,40.91
2022-12-18T13:45:50.394Z,41.62
2022-12-18T13:48:25.257Z,41.46
2022-12-18T13:51:11.270Z,41.53
2022-12-18T13:53:53.950Z,41.96
2022-12-18T13:56:33.651Z,42.56
2022-12-18T13:59:23.878Z,42.39
2022-12-18T14:02:03.838Z,42.14
2022-12-18T14:04:36.187Z,42.75
2022-12-18T14:07:18.909Z,43.09
2022-12-18T14:13:02.009Z,43.41
2022-12-18T14:15:41.410Z,43.48
2022-12-18T14:18:45.496Z,43.81
2022-12-18T14:21:30.467Z,43.58
2022-12-18T14:24:21.355Z,45.57
2022-12-18T14:26:52.027Z,46.27
2022-12-18T14:29:32.125Z,46.96
2022-12-18T14:32:22.038Z,47.76
2022-12-18T14:34:55.293Z,48.88
2022-12-18T14:37:28.918Z,48.77
2022-12-18T14:40:11.061Z,49.32
2022-12-18T14:42:39.201Z,49.34
2022-12-18T14:45:45.150Z,49.49
2022-12-18T14:48:13.785Z,49.21
2022-12-18T14:50:44.323Z,49.73
2022-12-18T14:53:37.737Z,50.05
2022-12-18T14:56:23.440Z,50.67
2022-12-18T14:59:26.151Z,50.98
2022-12-18T15:02:26.971Z,51.29
2022-12-18T15:05:17.560Z,51.41
2022-12-18T15:07:52.444Z,52.15
2022-12-18T15:10:33.693Z,52.89
2022-12-18T15:13:01.515Z,52.82
2022-12-18T15:15:37.723Z,53.60
2022-12-18T15:18:11.528Z,54.48
2022-12-18T15:21:00.381Z,54.50
2022-12-18T15:23:48.088Z,54.90
2022-12-18T15:26:20.278Z,54.75
2022-12-18T15:29:04.011Z,54.61
2022-12-18T15:31:38.596Z,54.80
2022-12-18T15:34:09.373Z,54.86
2022-12-18T15:36:37.600Z,54.63
2022-12-18T15:39:07.069Z,54.56
2022-12-18T15:41:37.710Z,54.93
2022-12-18T15:44:25.080Z,55.17
2022-12-18T15:46:52.659Z,55.54
2022-12-18T15:49:20.366Z,55.01
2022-12-18T15:51:56.434Z,55.88
2022-12-18T15:54:44.418Z,55.96
2022-12-18T15:57:25.628Z,56.12
2022-12-18T15:59:59.127Z,56.04
2022-12-18T16:02:29.380Z,56.32
2022-12-18T16:04:57.888Z,56.94
2022-12-18T16:07:28.182Z,56.03
2022-12-18T16:09:58.878Z,56.17
2022-12-18T16:12:27.935Z,57.86
2022-12-18T16:14:55.433Z,57.84
2022-12-18T16:17:23.013Z,57.85
2022-12-18T16:19:55.158Z,58.20
2022-12-18T16:22:31.851Z,58.65
2022-12-18T16:24:59.618Z,59.06
2022-12-18T16:27:27.544Z,58.87
2022-12-18T16:29:55.769Z,57.24
2022-12-18T16:32:24.615Z,56.62
2022-12-18T16:34:52.650Z,57.07
2022-12-18T16:37:20.051Z,57.06
2022-12-18T16:39:47.728Z,56.64
2022-12-18T16:42:21.205Z,55.20
2022-12-18T16:44:50.343Z,55.58
2022-12-18T16:47:19.329Z,55.67
2022-12-18T16:49:47.710Z,55.90
2022-12-18T16:52:16.581Z,56.52
2022-12-18T16:54:46.099Z,57.23
2022-12-18T16:57:19.746Z,57.35
2022-12-18T16:59:49.280Z,58.03
2022-12-18T17:02:25.225Z,57.04
2022-12-18T17:04:59.821Z,55.93
2022-12-18T17:07:28.450Z,56.18
2022-12-18T17:09:56.723Z,56.70
2022-12-18T17:12:25.055Z,56.38
2022-12-18T17:14:52.514Z,55.30
2022-12-18T17:17:21.803Z,55.56
2022-12-18T17:19:52.150Z,55.54
2022-12-18T17:22:23.574Z,55.73
2022-12-18T17:24:50.954Z,55.87
2022-12-18T17:27:18.758Z,56.40
2022-12-18T17:29:48.326Z,57.07
2022-12-18T17:32:18.158Z,55.86
2022-12-18T17:34:46.126Z,55.12
2022-12-18T17:37:14.350Z,54.77
2022-12-18T17:39:42.475Z,54.94
2022-12-18T17:42:14.812Z,54.92
2022-12-18T17:44:44.467Z,54.33
2022-12-18T17:47:17.495Z,54.71
2022-12-18T17:49:45.104Z,54.54
2022-12-18T17:52:12.472Z,55.28
2022-12-18T17:54:42.147Z,55.66
2022-12-18T17:57:10.979Z,55.06
2022-12-18T17:59:38.781Z,55.31
2022-12-18T18:02:06.499Z,54.59
2022-12-18T18:04:34.422Z,54.76
2022-12-18T18:07:01.883Z,54.63
2022-12-18T18:09:29.326Z,54.02
2022-12-18T18:12:15.893Z,53.44
2022-12-18T18:14:43.639Z,53.48
2022-12-18T18:17:11.228Z,52.94
2022-12-18T18:19:39.375Z,53.86
2022-12-18T18:22:07.910Z,53.73
2022-12-18T18:24:35.520Z,53.77
2022-12-18T18:27:03.239Z,53.11
2022-12-18T18:29:30.683Z,52.16
2022-12-18T18:31:59.241Z,52.13
2022-12-18T18:34:31.069Z,52.64
2022-12-18T18:36:58.605Z,52.68
2022-12-18T18:39:27.038Z,52.69
2022-12-18T18:41:55.062Z,52.01
2022-12-18T18:44:25.993Z,52.17
2022-12-18T18:46:58.611Z,52.39
2022-12-18T18:49:28.076Z,52.51
2022-12-18T18:51:57.830Z,53.24
2022-12-18T18:54:26.816Z,53.61
2022-12-18T18:59:43.765Z,52.20
2022-12-18T19:02:17.445Z,51.61
2022-12-18T19:04:46.658Z,52.41
2022-12-18T19:07:29.355Z,50.48
2022-12-18T19:10:04.189Z,52.53
2022-12-18T19:12:53.481Z,52.83
2022-12-18T19:15:22.291Z,52.91
2022-12-18T19:17:50.159Z,53.26
2022-12-18T19:20:18.201Z,52.44
2022-12-18T19:22:47.937Z,52.31
2022-12-18T19:25:38.627Z,52.22
2022-12-18T19:28:18.992Z,51.88
2022-12-18T19:30:58.669Z,51.54
2022-12-18T19:33:45.719Z,50.83
2022-12-18T19:36:25.148Z,52.60
2022-12-18T19:38:57.585Z,52.79
2022-12-18T19:41:29.121Z,51.71
2022-12-18T19:43:58.947Z,51.79
2022-12-18T19:46:26.406Z,52.79
2022-12-18T19:48:53.976Z,53.31
2022-12-18T19:51:28.910Z,53.67
2022-12-18T19:54:01.373Z,53.92
2022-12-18T19:56:34.909Z,54.03
2022-12-18T19:59:05.398Z,54.44
2022-12-18T20:01:33.666Z,55.52
2022-12-18T20:04:01.799Z,54.37
2022-12-18T20:06:53.408Z,53.54
2022-12-18T20:09:22.054Z,53.18
2022-12-18T20:11:50.591Z,53.04
2022-12-18T20:14:22.808Z,52.97
2022-12-18T20:16:52.487Z,53.83
2022-12-18T20:19:22.379Z,53.13
2022-12-18T20:21:50.321Z,53.81
2022-12-18T20:24:18.039Z,53.97
2022-12-18T20:26:45.636Z,54.13
2022-12-18T20:29:13.385Z,54.63
2022-12-18T20:31:41.516Z,55.47
2022-12-18T20:34:09.151Z,55.57
2022-12-18T20:36:39.818Z,55.90
2022-12-18T20:39:10.972Z,55.57
2022-12-18T20:41:40.324Z,55.94
2022-12-18T20:44:21.935Z,55.30
2022-12-18T20:46:57.877Z,56.45
2022-12-18T20:49:27.679Z,56.64
2022-12-18T20:51:57.803Z,56.05
2022-12-18T20:54:28.216Z,56.69
2022-12-18T20:56:56.807Z,56.14
2022-12-18T20:59:25.854Z,55.62
2022-12-18T21:01:54.390Z,55.81
2022-12-18T21:04:24.262Z,55.75
2022-12-18T21:37:19.491Z,55.08
2022-12-18T21:55:35.336Z,55.97
2022-12-18T22:08:23.329Z,54.19
2022-12-18T22:10:52.114Z,55.35
2022-12-18T22:13:19.389Z,55.84
2022-12-18T22:24:22.213Z,54.47
2022-12-18T22:27:01.829Z,53.97
2022-12-18T22:29:51.871Z,53.73
2022-12-18T22:32:30.750Z,54.32
2022-12-18T22:35:06.212Z,54.85
2022-12-18T22:37:35.531Z,54.89
2022-12-18T22:45:27.866Z,52.83
2022-12-18T22:47:55.586Z,54.01
2022-12-18T22:50:23.051Z,54.97
2022-12-18T22:52:50.572Z,54.92
2022-12-18T22:55:18.408Z,54.01
2022-12-18T22:57:48.539Z,52.88
2022-12-18T23:00:24.625Z,53.73
2022-12-18T23:02:59.984Z,54.27
2022-12-18T23:05:30.912Z,53.68
2022-12-18T23:07:59.279Z,53.49
2022-12-18T23:10:27.437Z,52.07
2022-12-18T23:12:54.920Z,52.00
2022-12-18T23:15:27.731Z,52.20
2022-12-18T23:17:58.888Z,52.50
2022-12-18T23:20:28.205Z,51.97
2022-12-18T23:22:55.724Z,53.34
2022-12-18T23:25:23.993Z,53.92
2022-12-18T23:27:52.047Z,54.16
2022-12-18T23:30:19.635Z,54.29
2022-12-18T23:32:47.181Z,54.55
2022-12-18T23:35:16.022Z,54.80
2022-12-18T23:37:58.985Z,53.96
2022-12-18T23:40:29.569Z,54.08
2022-12-18T23:42:57.823Z,53.65
2022-12-18T23:45:25.239Z,53.88
2022-12-18T23:47:52.874Z,54.50
2022-12-18T23:50:22.114Z,54.18
2022-12-18T23:52:57.698Z,54.56
2022-12-18T23:55:40.715Z,54.43
2022-12-18T23:58:19.489Z,53.86
